sensor_id;sensor_type;location;lat;lon;timestamp;pressure;altitude;pressure_sealevel;temperature;humidity
77799;BME280;66989;50.426;15.352;2023-09-08T00:02:02;98907.22;;;16.22;79.82
77799;BME280;66989;50.426;15.352;2023-09-08T00:04:28;98903.84;;;16.20;79.66
77799;BME280;66989;50.426;15.352;2023-09-08T00:06:53;98904.13;;;16.17;79.94
77799;BME280;66989;50.426;15.352;2023-09-08T00:09:19;98899.22;;;16.13;79.85
77799;BME280;66989;50.426;15.352;2023-09-08T00:11:44;98899.47;;;16.10;79.49
77799;BME280;66989;50.426;15.352;2023-09-08T00:14:09;98892.72;;;16.05;79.95
77799;BME280;66989;50.426;15.352;2023-09-08T00:16:35;98885.88;;;16.03;80.06
77799;BME280;66989;50.426;15.352;2023-09-08T00:19:01;98896.66;;;16.01;81.11
77799;BME280;66989;50.426;15.352;2023-09-08T00:21:26;98888.78;;;16.00;81.02
77799;BME280;66989;50.426;15.352;2023-09-08T00:23:52;98899.72;;;15.97;80.52
77799;BME280;66989;50.426;15.352;2023-09-08T00:26:18;98897.31;;;15.94;80.64
77799;BME280;66989;50.426;15.352;2023-09-08T00:28:44;98894.06;;;15.90;81.69
77799;BME280;66989;50.426;15.352;2023-09-08T00:31:09;98894.22;;;15.89;81.18
77799;BME280;66989;50.426;15.352;2023-09-08T00:33:34;98898.84;;;15.87;80.69
77799;BME280;66989;50.426;15.352;2023-09-08T00:36:00;98898.41;;;15.81;80.80
77799;BME280;66989;50.426;15.352;2023-09-08T00:38:25;98895.97;;;15.78;80.84
77799;BME280;66989;50.426;15.352;2023-09-08T00:40:51;98899.19;;;15.72;80.97
77799;BME280;66989;50.426;15.352;2023-09-08T00:43:17;98889.78;;;15.68;80.92
77799;BME280;66989;50.426;15.352;2023-09-08T00:45:43;98890.56;;;15.59;81.39
77799;BME280;66989;50.426;15.352;2023-09-08T00:48:10;98895.31;;;15.55;81.54
77799;BME280;66989;50.426;15.352;2023-09-08T00:50:36;98891.38;;;15.50;81.99
77799;BME280;66989;50.426;15.352;2023-09-08T00:53:04;98896.94;;;15.47;81.97
77799;BME280;66989;50.426;15.352;2023-09-08T00:55:30;98901.66;;;15.43;82.42
77799;BME280;66989;50.426;15.352;2023-09-08T00:57:56;98893.84;;;15.42;82.67
77799;BME280;66989;50.426;15.352;2023-09-08T01:00:21;98895.53;;;15.43;82.98
77799;BME280;66989;50.426;15.352;2023-09-08T01:02:47;98901.81;;;15.42;82.26
77799;BME280;66989;50.426;15.352;2023-09-08T01:05:12;98898.31;;;15.41;82.77
77799;BME280;66989;50.426;15.352;2023-09-08T01:07:39;98909.47;;;15.35;82.23
77799;BME280;66989;50.426;15.352;2023-09-08T01:10:06;98899.22;;;15.31;82.14
77799;BME280;66989;50.426;15.352;2023-09-08T01:12:32;98895.97;;;15.27;82.53
77799;BME280;66989;50.426;15.352;2023-09-08T01:14:58;98896.81;;;15.27;83.31
77799;BME280;66989;50.426;15.352;2023-09-08T01:17:23;98894.31;;;15.26;82.67
77799;BME280;66989;50.426;15.352;2023-09-08T01:19:51;98900.84;;;15.22;82.47
77799;BME280;66989;50.426;15.352;2023-09-08T01:27:38;98885.91;;;15.10;83.47
77799;BME280;66989;50.426;15.352;2023-09-08T01:30:07;98891.22;;;15.10;83.63
77799;BME280;66989;50.426;15.352;2023-09-08T01:32:33;98885.78;;;15.11;83.54
77799;BME280;66989;50.426;15.352;2023-09-08T01:34:59;98885.78;;;15.11;83.54
77799;BME280;66989;50.426;15.352;2023-09-08T01:37:25;98889.16;;;15.13;83.36
77799;BME280;66989;50.426;15.352;2023-09-08T01:39:51;98883.25;;;15.10;83.15
77799;BME280;66989;50.426;15.352;2023-09-08T01:42:16;98890.50;;;15.08;83.18
77799;BME280;66989;50.426;15.352;2023-09-08T01:44:41;98884.63;;;15.04;83.40
77799;BME280;66989;50.426;15.352;2023-09-08T01:47:07;98888.25;;;15.03;83.52
77799;BME280;66989;50.426;15.352;2023-09-08T01:49:32;98880.53;;;15.00;83.11
77799;BME280;66989;50.426;15.352;2023-09-08T01:51:57;98880.91;;;14.95;83.37
77799;BME280;66989;50.426;15.352;2023-09-08T01:54:23;98878.63;;;14.91;83.42
77799;BME280;66989;50.426;15.352;2023-09-08T01:56:48;98878.06;;;14.87;84.04
77799;BME280;66989;50.426;15.352;2023-09-08T01:59:14;98883.03;;;14.81;84.13
77799;BME280;66989;50.426;15.352;2023-09-08T02:01:39;98879.06;;;14.75;84.33
77799;BME280;66989;50.426;15.352;2023-09-08T02:04:05;98878.47;;;14.71;84.38
77799;BME280;66989;50.426;15.352;2023-09-08T02:06:31;98874.88;;;14.72;84.43
77799;BME280;66989;50.426;15.352;2023-09-08T02:08:56;98874.50;;;14.77;84.80
77799;BME280;66989;50.426;15.352;2023-09-08T02:11:21;98869.66;;;14.82;84.61
77799;BME280;66989;50.426;15.352;2023-09-08T02:13:47;98870.22;;;14.86;84.33
77799;BME280;66989;50.426;15.352;2023-09-08T02:16:16;98869.97;;;14.89;84.69
77799;BME280;66989;50.426;15.352;2023-09-08T02:18:42;98866.47;;;14.88;83.59
77799;BME280;66989;50.426;15.352;2023-09-08T02:21:08;98864.91;;;14.86;84.00
77799;BME280;66989;50.426;15.352;2023-09-08T02:23:33;98867.09;;;14.81;83.86
77799;BME280;66989;50.426;15.352;2023-09-08T02:25:58;98865.66;;;14.76;84.16
77799;BME280;66989;50.426;15.352;2023-09-08T02:28:24;98863.28;;;14.73;84.67
77799;BME280;66989;50.426;15.352;2023-09-08T02:30:49;98865.78;;;14.75;84.02
77799;BME280;66989;50.426;15.352;2023-09-08T02:33:15;98864.34;;;14.71;84.38
77799;BME280;66989;50.426;15.352;2023-09-08T02:35:40;98858.47;;;14.67;84.25
77799;BME280;66989;50.426;15.352;2023-09-08T02:38:06;98862.22;;;14.65;84.26
77799;BME280;66989;50.426;15.352;2023-09-08T02:40:31;98857.28;;;14.60;84.53
77799;BME280;66989;50.426;15.352;2023-09-08T02:42:59;98857.56;;;14.57;85.04
77799;BME280;66989;50.426;15.352;2023-09-08T02:45:24;98853.00;;;14.48;85.15
77799;BME280;66989;50.426;15.352;2023-09-08T02:47:50;98860.34;;;14.44;85.75
77799;BME280;66989;50.426;15.352;2023-09-08T02:50:15;98857.13;;;14.41;86.81
77799;BME280;66989;50.426;15.352;2023-09-08T02:52:40;98857.50;;;14.36;86.63
77799;BME280;66989;50.426;15.352;2023-09-08T02:55:06;98862.44;;;14.30;87.34
77799;BME280;66989;50.426;15.352;2023-09-08T02:57:32;98865.13;;;14.18;87.48
77799;BME280;66989;50.426;15.352;2023-09-08T02:59:57;98862.13;;;14.12;87.65
77799;BME280;66989;50.426;15.352;2023-09-08T03:02:24;98857.19;;;14.07;87.72
77799;BME280;66989;50.426;15.352;2023-09-08T03:04:50;98854.06;;;14.02;87.90
77799;BME280;66989;50.426;15.352;2023-09-08T03:07:15;98853.72;;;13.95;88.43
77799;BME280;66989;50.426;15.352;2023-09-08T03:09:40;98852.28;;;13.91;89.01
77799;BME280;66989;50.426;15.352;2023-09-08T03:12:06;98853.13;;;13.92;89.47
77799;BME280;66989;50.426;15.352;2023-09-08T03:14:32;98857.59;;;13.91;89.17
77799;BME280;66989;50.426;15.352;2023-09-08T03:16:57;98858.41;;;13.92;89.58
77799;BME280;66989;50.426;15.352;2023-09-08T03:19:22;98856.75;;;13.91;89.43
77799;BME280;66989;50.426;15.352;2023-09-08T03:21:48;98860.38;;;13.90;89.74
77799;BME280;66989;50.426;15.352;2023-09-08T03:24:13;98856.88;;;13.89;89.67
77799;BME280;66989;50.426;15.352;2023-09-08T03:26:38;98850.72;;;13.89;90.36
77799;BME280;66989;50.426;15.352;2023-09-08T03:29:05;98851.44;;;13.91;90.10
77799;BME280;66989;50.426;15.352;2023-09-08T03:31:31;98850.47;;;13.92;89.88
77799;BME280;66989;50.426;15.352;2023-09-08T03:33:56;98853.81;;;13.94;89.81
77799;BME280;66989;50.426;15.352;2023-09-08T03:36:22;98850.09;;;13.96;89.87
77799;BME280;66989;50.426;15.352;2023-09-08T03:38:47;98849.00;;;13.99;89.78
77799;BME280;66989;50.426;15.352;2023-09-08T03:41:12;98847.94;;;14.02;89.32
77799;BME280;66989;50.426;15.352;2023-09-08T03:43:38;98844.06;;;14.06;89.65
77799;BME280;66989;50.426;15.352;2023-09-08T03:46:04;98844.91;;;14.06;89.19
77799;BME280;66989;50.426;15.352;2023-09-08T03:48:29;98844.06;;;14.06;89.15
77799;BME280;66989;50.426;15.352;2023-09-08T03:50:54;98844.06;;;14.06;89.40
77799;BME280;66989;50.426;15.352;2023-09-08T03:53:20;98847.69;;;14.05;89.34
77799;BME280;66989;50.426;15.352;2023-09-08T03:55:45;98845.88;;;14.05;89.08
77799;BME280;66989;50.426;15.352;2023-09-08T03:58:11;98850.44;;;14.03;89.37
77799;BME280;66989;50.426;15.352;2023-09-08T04:00:36;98853.38;;;14.00;88.68
77799;BME280;66989;50.426;15.352;2023-09-08T04:03:02;98848.16;;;13.98;88.92
77799;BME280;66989;50.426;15.352;2023-09-08T04:05:27;98845.50;;;13.98;89.26
77799;BME280;66989;50.426;15.352;2023-09-08T04:07:53;98841.03;;;13.99;89.15
77799;BME280;66989;50.426;15.352;2023-09-08T04:10:18;98842.03;;;13.98;88.86
77799;BME280;66989;50.426;15.352;2023-09-08T04:12:44;98842.03;;;13.98;88.18
77799;BME280;66989;50.426;15.352;2023-09-08T04:15:10;98845.66;;;13.97;88.38
77799;BME280;66989;50.426;15.352;2023-09-08T04:17:36;98848.28;;;13.97;88.03
77799;BME280;66989;50.426;15.352;2023-09-08T04:20:03;98849.50;;;13.93;88.19
77799;BME280;66989;50.426;15.352;2023-09-08T04:22:30;98845.44;;;13.89;88.43
77799;BME280;66989;50.426;15.352;2023-09-08T04:24:55;98848.31;;;13.86;88.21
77799;BME280;66989;50.426;15.352;2023-09-08T04:27:22;98845.78;;;13.84;88.43
77799;BME280;66989;50.426;15.352;2023-09-08T04:29:47;98844.09;;;13.83;88.16
77799;BME280;66989;50.426;15.352;2023-09-08T04:32:13;98851.19;;;13.83;88.50
77799;BME280;66989;50.426;15.352;2023-09-08T04:34:39;98851.09;;;13.84;88.01
77799;BME280;66989;50.426;15.352;2023-09-08T04:37:05;98840.34;;;13.86;88.39
77799;BME280;66989;50.426;15.352;2023-09-08T04:39:32;98843.63;;;13.89;88.24
77799;BME280;66989;50.426;15.352;2023-09-08T04:41:58;98848.66;;;13.92;87.87
77799;BME280;66989;50.426;15.352;2023-09-08T04:44:27;98853.47;;;13.98;87.95
77799;BME280;66989;50.426;15.352;2023-09-08T04:46:59;98848.78;;;14.02;87.81
77799;BME280;66989;50.426;15.352;2023-09-08T04:49:25;98841.41;;;14.06;87.51
77799;BME280;66989;50.426;15.352;2023-09-08T04:51:53;98849.84;;;14.11;87.47
77799;BME280;66989;50.426;15.352;2023-09-08T04:54:18;98847.06;;;14.12;86.79
77799;BME280;66989;50.426;15.352;2023-09-08T04:56:45;98846.94;;;14.14;86.74
77799;BME280;66989;50.426;15.352;2023-09-08T04:59:10;98851.88;;;14.18;86.20
77799;BME280;66989;50.426;15.352;2023-09-08T05:01:35;98853.31;;;14.22;86.54
77799;BME280;66989;50.426;15.352;2023-09-08T05:04:05;98855.72;;;14.25;86.54
77799;BME280;66989;50.426;15.352;2023-09-08T05:06:30;98862.44;;;14.30;86.62
77799;BME280;66989;50.426;15.352;2023-09-08T05:08:56;98857.88;;;14.32;86.00
77799;BME280;66989;50.426;15.352;2023-09-08T05:11:22;98857.75;;;14.33;86.24
77799;BME280;66989;50.426;15.352;2023-09-08T05:13:48;98861.00;;;14.37;86.16
77799;BME280;66989;50.426;15.352;2023-09-08T05:16:13;98852.53;;;14.43;86.16
77799;BME280;66989;50.426;15.352;2023-09-08T05:18:39;98858.06;;;14.51;86.74
77799;BME280;66989;50.426;15.352;2023-09-08T05:21:06;98856.81;;;14.55;85.60
77799;BME280;66989;50.426;15.352;2023-09-08T05:23:32;98862.50;;;14.62;85.15
77799;BME280;66989;50.426;15.352;2023-09-08T05:25:58;98868.13;;;14.68;85.13
77799;BME280;66989;50.426;15.352;2023-09-08T05:28:23;98860.63;;;14.73;85.00
77799;BME280;66989;50.426;15.352;2023-09-08T05:30:52;98866.25;;;14.80;84.57
77799;BME280;66989;50.426;15.352;2023-09-08T05:33:17;98870.94;;;14.88;84.07
77799;BME280;66989;50.426;15.352;2023-09-08T05:35:44;98873.91;;;14.94;83.90
77799;BME280;66989;50.426;15.352;2023-09-08T05:38:09;98874.25;;;15.01;83.29
77799;BME280;66989;50.426;15.352;2023-09-08T05:40:35;98872.03;;;15.06;82.84
77799;BME280;66989;50.426;15.352;2023-09-08T05:43:00;98870.44;;;15.15;82.98
77799;BME280;66989;50.426;15.352;2023-09-08T05:45:25;98867.13;;;15.22;82.74
77799;BME280;66989;50.426;15.352;2023-09-08T05:47:51;98866.22;;;15.33;82.63
77799;BME280;66989;50.426;15.352;2023-09-08T05:50:17;98862.97;;;15.50;82.81
77799;BME280;66989;50.426;15.352;2023-09-08T05:52:43;98866.97;;;15.66;81.83
77799;BME280;66989;50.426;15.352;2023-09-08T05:55:09;98873.34;;;15.84;80.98
77799;BME280;66989;50.426;15.352;2023-09-08T05:57:34;98867.00;;;16.06;80.20
77799;BME280;66989;50.426;15.352;2023-09-08T06:00:02;98866.47;;;16.31;79.36
77799;BME280;66989;50.426;15.352;2023-09-08T06:02:27;98855.47;;;16.65;78.83
77799;BME280;66989;50.426;15.352;2023-09-08T06:04:53;98864.31;;;17.04;77.68
77799;BME280;66989;50.426;15.352;2023-09-08T06:07:18;98855.81;;;17.48;76.72
77799;BME280;66989;50.426;15.352;2023-09-08T06:09:43;98863.94;;;17.93;74.74
77799;BME280;66989;50.426;15.352;2023-09-08T06:12:09;98864.28;;;18.35;72.99
77799;BME280;66989;50.426;15.352;2023-09-08T06:14:34;98855.69;;;18.77;71.86
77799;BME280;66989;50.426;15.352;2023-09-08T06:17:00;98858.72;;;19.18;69.50
77799;BME280;66989;50.426;15.352;2023-09-08T06:19:25;98860.50;;;19.61;69.09
77799;BME280;66989;50.426;15.352;2023-09-08T06:21:50;98853.88;;;20.08;67.74
77799;BME280;66989;50.426;15.352;2023-09-08T06:24:15;98867.09;;;20.52;66.48
77799;BME280;66989;50.426;15.352;2023-09-08T06:26:41;98856.81;;;20.97;65.15
77799;BME280;66989;50.426;15.352;2023-09-08T06:29:07;98858.09;;;21.42;63.18
77799;BME280;66989;50.426;15.352;2023-09-08T06:31:33;98851.31;;;21.87;62.14
77799;BME280;66989;50.426;15.352;2023-09-08T06:33:58;98849.63;;;22.25;60.16
77799;BME280;66989;50.426;15.352;2023-09-08T06:36:23;98846.91;;;22.65;59.05
77799;BME280;66989;50.426;15.352;2023-09-08T06:38:49;98843.63;;;23.00;57.99
77799;BME280;66989;50.426;15.352;2023-09-08T06:41:14;98843.16;;;23.35;56.73
77799;BME280;66989;50.426;15.352;2023-09-08T06:43:40;98853.69;;;23.74;55.94
77799;BME280;66989;50.426;15.352;2023-09-08T06:46:05;98846.25;;;24.05;55.14
77799;BME280;66989;50.426;15.352;2023-09-08T06:48:30;98847.38;;;24.26;53.81
77799;BME280;66989;50.426;15.352;2023-09-08T06:50:56;98849.75;;;24.50;52.71
77799;BME280;66989;50.426;15.352;2023-09-08T06:53:28;98847.84;;;24.87;52.42
77799;BME280;66989;50.426;15.352;2023-09-08T06:55:53;98841.91;;;25.20;51.51
77799;BME280;66989;50.426;15.352;2023-09-08T06:58:18;98843.03;;;25.53;50.83
77799;BME280;66989;50.426;15.352;2023-09-08T07:00:44;98846.16;;;25.85;50.26
77799;BME280;66989;50.426;15.352;2023-09-08T07:03:09;98844.25;;;26.20;49.17
77799;BME280;66989;50.426;15.352;2023-09-08T07:05:39;98838.75;;;26.48;47.85
77799;BME280;66989;50.426;15.352;2023-09-08T07:08:07;98840.03;;;26.65;47.19
77799;BME280;66989;50.426;15.352;2023-09-08T07:10:35;98838.00;;;27.01;46.76
77799;BME280;66989;50.426;15.352;2023-09-08T07:13:01;98838.22;;;26.99;45.49
77799;BME280;66989;50.426;15.352;2023-09-08T07:15:26;98841.13;;;26.84;45.53
77799;BME280;66989;50.426;15.352;2023-09-08T07:17:51;98845.31;;;26.93;45.47
77799;BME280;66989;50.426;15.352;2023-09-08T07:20:17;98843.84;;;26.91;45.72
77799;BME280;66989;50.426;15.352;2023-09-08T07:22:43;98840.28;;;26.90;45.85
77799;BME280;66989;50.426;15.352;2023-09-08T07:25:08;98844.69;;;26.91;46.34
77799;BME280;66989;50.426;15.352;2023-09-08T07:27:34;98839.09;;;27.19;46.06
77799;BME280;66989;50.426;15.352;2023-09-08T07:30:00;98842.44;;;27.55;45.86
77799;BME280;66989;50.426;15.352;2023-09-08T07:32:25;98838.41;;;27.84;44.84
77799;BME280;66989;50.426;15.352;2023-09-08T07:34:51;98838.16;;;28.05;44.10
77799;BME280;66989;50.426;15.352;2023-09-08T07:37:23;98830.69;;;27.94;43.36
77799;BME280;66989;50.426;15.352;2023-09-08T07:39:50;98843.47;;;27.60;43.93
77799;BME280;66989;50.426;15.352;2023-09-08T07:42:16;98834.72;;;27.45;44.39
77799;BME280;66989;50.426;15.352;2023-09-08T07:44:41;98842.44;;;27.22;44.36
77799;BME280;66989;50.426;15.352;2023-09-08T07:47:06;98838.44;;;27.04;44.65
77799;BME280;66989;50.426;15.352;2023-09-08T07:49:35;98843.44;;;26.94;44.99
77799;BME280;66989;50.426;15.352;2023-09-08T07:52:01;98844.94;;;27.16;45.02
77799;BME280;66989;50.426;15.352;2023-09-08T07:54:26;98832.84;;;27.26;44.89
77799;BME280;66989;50.426;15.352;2023-09-08T07:56:51;98832.41;;;27.42;44.61
77799;BME280;66989;50.426;15.352;2023-09-08T07:59:17;98838.25;;;27.65;44.56
77799;BME280;66989;50.426;15.352;2023-09-08T08:01:42;98834.91;;;27.70;44.60
77799;BME280;66989;50.426;15.352;2023-09-08T08:04:08;98837.31;;;28.11;43.67
77799;BME280;66989;50.426;15.352;2023-09-08T08:06:33;98835.34;;;28.25;43.53
77799;BME280;66989;50.426;15.352;2023-09-08T08:08:59;98837.00;;;28.33;43.64
77799;BME280;66989;50.426;15.352;2023-09-08T08:11:24;98831.75;;;28.38;43.84
77799;BME280;66989;50.426;15.352;2023-09-08T08:13:50;98834.97;;;28.66;42.79
77799;BME280;66989;50.426;15.352;2023-09-08T08:16:16;98833.53;;;28.95;42.22
77799;BME280;66989;50.426;15.352;2023-09-08T08:18:41;98841.72;;;29.20;41.44
77799;BME280;66989;50.426;15.352;2023-09-08T08:21:06;98832.94;;;29.43;41.18
77799;BME280;66989;50.426;15.352;2023-09-08T08:23:32;98832.16;;;29.61;40.46
77799;BME280;66989;50.426;15.352;2023-09-08T08:25:59;98821.47;;;29.85;40.48
77799;BME280;66989;50.426;15.352;2023-09-08T08:28:24;98825.34;;;30.14;40.27
77799;BME280;66989;50.426;15.352;2023-09-08T08:30:50;98829.16;;;30.43;39.84
77799;BME280;66989;50.426;15.352;2023-09-08T08:33:15;98810.22;;;30.66;39.25
77799;BME280;66989;50.426;15.352;2023-09-08T08:35:41;98819.56;;;30.70;38.47
77799;BME280;66989;50.426;15.352;2023-09-08T08:38:06;98808.88;;;30.99;39.69
77799;BME280;66989;50.426;15.352;2023-09-08T08:40:31;98820.41;;;31.24;38.90
77799;BME280;66989;50.426;15.352;2023-09-08T08:42:59;98811.91;;;31.32;38.12
77799;BME280;66989;50.426;15.352;2023-09-08T08:45:25;98810.84;;;31.69;37.51
77799;BME280;66989;50.426;15.352;2023-09-08T08:47:51;98813.19;;;32.00;37.37
77799;BME280;66989;50.426;15.352;2023-09-08T08:50:17;98804.72;;;32.25;36.69
77799;BME280;66989;50.426;15.352;2023-09-08T08:52:43;98804.81;;;32.59;37.25
77799;BME280;66989;50.426;15.352;2023-09-08T08:55:09;98808.38;;;32.88;35.70
77799;BME280;66989;50.426;15.352;2023-09-08T08:57:39;98815.06;;;32.52;35.42
77799;BME280;66989;50.426;15.352;2023-09-08T09:00:07;98812.59;;;32.39;35.90
77799;BME280;66989;50.426;15.352;2023-09-08T09:02:39;98808.16;;;32.49;35.55
77799;BME280;66989;50.426;15.352;2023-09-08T09:05:05;98806.31;;;32.38;35.55
77799;BME280;66989;50.426;15.352;2023-09-08T09:07:32;98804.09;;;32.23;35.45
77799;BME280;66989;50.426;15.352;2023-09-08T09:09:57;98801.97;;;32.54;35.95
77799;BME280;66989;50.426;15.352;2023-09-08T09:12:22;98795.75;;;32.70;35.87
77799;BME280;66989;50.426;15.352;2023-09-08T09:14:52;98797.34;;;33.17;35.07
77799;BME280;66989;50.426;15.352;2023-09-08T09:17:18;98796.94;;;33.58;34.11
77799;BME280;66989;50.426;15.352;2023-09-08T09:19:43;98794.28;;;33.63;34.17
77799;BME280;66989;50.426;15.352;2023-09-08T09:22:08;98794.56;;;33.84;34.30
77799;BME280;66989;50.426;15.352;2023-09-08T09:24:36;98792.66;;;33.68;33.87
77799;BME280;66989;50.426;15.352;2023-09-08T09:27:04;98788.47;;;33.60;34.45
77799;BME280;66989;50.426;15.352;2023-09-08T09:29:31;98789.56;;;33.59;33.70
77799;BME280;66989;50.426;15.352;2023-09-08T09:32:05;98795.59;;;33.61;34.21
77799;BME280;66989;50.426;15.352;2023-09-08T09:34:31;98790.00;;;33.17;33.25
77799;BME280;66989;50.426;15.352;2023-09-08T09:36:57;98796.31;;;33.34;33.88
77799;BME280;66989;50.426;15.352;2023-09-08T09:39:24;98787.66;;;33.43;33.54
77799;BME280;66989;50.426;15.352;2023-09-08T09:41:57;98787.16;;;33.46;33.09
77799;BME280;66989;50.426;15.352;2023-09-08T09:44:23;98783.78;;;33.77;32.30
77799;BME280;66989;50.426;15.352;2023-09-08T09:46:52;98788.75;;;33.58;31.84
77799;BME280;66989;50.426;15.352;2023-09-08T09:49:17;98790.84;;;33.34;31.98
77799;BME280;66989;50.426;15.352;2023-09-08T09:51:50;98788.34;;;33.50;32.20
77799;BME280;66989;50.426;15.352;2023-09-08T09:54:16;98785.94;;;33.53;31.27
77799;BME280;66989;50.426;15.352;2023-09-08T09:56:45;98781.63;;;33.79;31.31
77799;BME280;66989;50.426;15.352;2023-09-08T09:59:13;98779.94;;;33.95;30.24
77799;BME280;66989;50.426;15.352;2023-09-08T10:01:40;98786.50;;;33.77;29.15
77799;BME280;66989;50.426;15.352;2023-09-08T10:04:06;98782.00;;;34.05;29.62
77799;BME280;66989;50.426;15.352;2023-09-08T10:06:34;98782.75;;;34.00;29.89
77799;BME280;66989;50.426;15.352;2023-09-08T10:09:01;98779.53;;;33.48;29.29
77799;BME280;66989;50.426;15.352;2023-09-08T10:11:29;98775.66;;;33.10;30.50
77799;BME280;66989;50.426;15.352;2023-09-08T10:14:01;98781.38;;;33.25;30.84
77799;BME280;66989;50.426;15.352;2023-09-08T10:16:27;98776.06;;;33.19;30.20
77799;BME280;66989;50.426;15.352;2023-09-08T10:18:58;98759.34;;;32.98;30.72
77799;BME280;66989;50.426;15.352;2023-09-08T10:21:26;98767.75;;;32.63;30.00
77799;BME280;66989;50.426;15.352;2023-09-08T10:23:58;98770.09;;;32.02;30.80
77799;BME280;66989;50.426;15.352;2023-09-08T10:26:27;98767.09;;;31.52;32.14
77799;BME280;66989;50.426;15.352;2023-09-08T10:28:54;98761.41;;;31.65;32.62
77799;BME280;66989;50.426;15.352;2023-09-08T10:31:23;98761.09;;;32.02;31.58
77799;BME280;66989;50.426;15.352;2023-09-08T10:33:51;98758.53;;;31.83;29.35
77799;BME280;66989;50.426;15.352;2023-09-08T10:36:16;98750.81;;;31.80;30.21
77799;BME280;66989;50.426;15.352;2023-09-08T10:38:42;98752.53;;;32.10;30.81
77799;BME280;66989;50.426;15.352;2023-09-08T10:44:03;98746.13;;;32.45;28.22
77799;BME280;66989;50.426;15.352;2023-09-08T10:46:31;98744.31;;;32.50;28.84
77799;BME280;66989;50.426;15.352;2023-09-08T10:49:07;98740.97;;;32.77;29.42
77799;BME280;66989;50.426;15.352;2023-09-08T10:51:33;98739.16;;;32.54;29.84
77799;BME280;66989;50.426;15.352;2023-09-08T10:54:00;98737.41;;;32.31;30.64
77799;BME280;66989;50.426;15.352;2023-09-08T10:56:31;98732.59;;;32.38;30.21
77799;BME280;66989;50.426;15.352;2023-09-08T10:59:13;98737.81;;;33.19;30.49
77799;BME280;66989;50.426;15.352;2023-09-08T11:01:38;98729.06;;;32.83;30.02
77799;BME280;66989;50.426;15.352;2023-09-08T11:04:04;98740.56;;;32.40;30.38
77799;BME280;66989;50.426;15.352;2023-09-08T11:06:33;98728.75;;;32.22;30.78
77799;BME280;66989;50.426;15.352;2023-09-08T11:09:05;98727.88;;;32.33;31.03
77799;BME280;66989;50.426;15.352;2023-09-08T11:11:33;98725.50;;;32.54;30.79
77799;BME280;66989;50.426;15.352;2023-09-08T11:13:58;98726.41;;;32.71;30.80
77799;BME280;66989;50.426;15.352;2023-09-08T11:16:24;98727.47;;;33.04;30.04
77799;BME280;66989;50.426;15.352;2023-09-08T11:18:54;98720.16;;;33.26;30.22
77799;BME280;66989;50.426;15.352;2023-09-08T11:21:19;98718.09;;;33.33;30.36
77799;BME280;66989;50.426;15.352;2023-09-08T11:23:45;98719.69;;;33.12;30.60
77799;BME280;66989;50.426;15.352;2023-09-08T11:26:11;98715.53;;;33.27;30.19
77799;BME280;66989;50.426;15.352;2023-09-08T11:28:37;98716.19;;;33.17;30.52
77799;BME280;66989;50.426;15.352;2023-09-08T11:31:04;98714.84;;;32.52;31.45
77799;BME280;66989;50.426;15.352;2023-09-08T11:33:33;98723.41;;;32.27;31.81
77799;BME280;66989;50.426;15.352;2023-09-08T11:35:59;98708.44;;;32.30;32.20
77799;BME280;66989;50.426;15.352;2023-09-08T11:38:27;98711.09;;;32.42;32.33
77799;BME280;66989;50.426;15.352;2023-09-08T11:40:55;98712.75;;;32.43;31.23
77799;BME280;66989;50.426;15.352;2023-09-08T11:43:22;98708.72;;;32.62;31.94
77799;BME280;66989;50.426;15.352;2023-09-08T11:45:47;98718.78;;;32.73;31.20
77799;BME280;66989;50.426;15.352;2023-09-08T11:48:14;98714.91;;;32.41;31.33
77799;BME280;66989;50.426;15.352;2023-09-08T11:50:41;98702.09;;;32.58;32.24
77799;BME280;66989;50.426;15.352;2023-09-08T11:53:07;98696.56;;;33.03;31.36
77799;BME280;66989;50.426;15.352;2023-09-08T11:55:32;98695.97;;;33.57;30.07
77799;BME280;66989;50.426;15.352;2023-09-08T11:57:57;98695.16;;;34.27;29.52
77799;BME280;66989;50.426;15.352;2023-09-08T12:00:25;98686.13;;;34.54;29.12
77799;BME280;66989;50.426;15.352;2023-09-08T12:02:51;98697.16;;;34.96;28.91
77799;BME280;66989;50.426;15.352;2023-09-08T12:05:26;98695.22;;;35.86;27.93
77799;BME280;66989;50.426;15.352;2023-09-08T12:07:53;98693.97;;;36.30;26.97
77799;BME280;66989;50.426;15.352;2023-09-08T12:10:20;98688.25;;;36.82;26.04
77799;BME280;66989;50.426;15.352;2023-09-08T12:12:49;98681.03;;;37.37;25.83
77799;BME280;66989;50.426;15.352;2023-09-08T12:15:32;98688.47;;;38.07;24.95
77799;BME280;66989;50.426;15.352;2023-09-08T12:17:58;98689.72;;;37.70;24.90
77799;BME280;66989;50.426;15.352;2023-09-08T12:20:23;98678.88;;;37.09;25.60
77799;BME280;66989;50.426;15.352;2023-09-08T12:22:52;98682.84;;;37.72;24.91
77799;BME280;66989;50.426;15.352;2023-09-08T12:25:18;98675.75;;;38.16;24.38
77799;BME280;66989;50.426;15.352;2023-09-08T12:27:45;98667.28;;;38.81;24.05
77799;BME280;66989;50.426;15.352;2023-09-08T12:30:16;98670.09;;;39.05;23.60
77799;BME280;66989;50.426;15.352;2023-09-08T12:32:42;98667.47;;;39.42;23.32
77799;BME280;66989;50.426;15.352;2023-09-08T12:35:07;98667.84;;;40.02;23.29
77799;BME280;66989;50.426;15.352;2023-09-08T12:37:33;98666.94;;;40.07;22.66
77799;BME280;66989;50.426;15.352;2023-09-08T12:39:58;98658.88;;;39.68;22.57
77799;BME280;66989;50.426;15.352;2023-09-08T12:42:26;98663.72;;;39.33;23.22
77799;BME280;66989;50.426;15.352;2023-09-08T12:44:54;98655.94;;;38.82;23.58
77799;BME280;66989;50.426;15.352;2023-09-08T12:47:20;98657.50;;;38.25;24.34
77799;BME280;66989;50.426;15.352;2023-09-08T12:49:45;98651.31;;;38.43;24.20
77799;BME280;66989;50.426;15.352;2023-09-08T12:52:11;98651.94;;;38.30;24.26
77799;BME280;66989;50.426;15.352;2023-09-08T12:54:36;98647.28;;;38.25;24.33